sensor_id;sensor_type;location;lat;lon;timestamp;temperature;humidity
39453;DHT22;25154;-33.684;151.102;2022-08-19T00:01:42;13.00;99.90
39453;DHT22;25154;-33.684;151.102;2022-08-19T00:06:46;13.20;99.90
39453;DHT22;25154;-33.684;151.102;2022-08-19T00:11:51;13.40;99.90
39453;DHT22;25154;-33.684;151.102;2022-08-19T00:16:54;13.50;99.90
39453;DHT22;25154;-33.684;151.102;2022-08-19T00:21:56;13.80;99.90
39453;DHT22;25154;-33.684;151.102;2022-08-19T00:26:59;14.10;99.90
39453;DHT22;25154;-33.684;151.102;2022-08-19T00:32:03;14.50;99.90
39453;DHT22;25154;-33.684;151.102;2022-08-19T00:37:06;14.70;99.90
39453;DHT22;25154;-33.684;151.102;2022-08-19T00:42:08;14.90;99.90
39453;DHT22;25154;-33.684;151.102;2022-08-19T00:47:10;15.20;99.90
39453;DHT22;25154;-33.684;151.102;2022-08-19T00:52:22;15.50;99.90
39453;DHT22;25154;-33.684;151.102;2022-08-19T00:57:35;15.70;99.90
39453;DHT22;25154;-33.684;151.102;2022-08-19T01:02:39;16.00;99.90
39453;DHT22;25154;-33.684;151.102;2022-08-19T01:07:42;16.20;99.90
39453;DHT22;25154;-33.684;151.102;2022-08-19T01:12:46;16.30;99.90
39453;DHT22;25154;-33.684;151.102;2022-08-19T01:17:49;17.10;99.90
39453;DHT22;25154;-33.684;151.102;2022-08-19T01:22:57;17.70;99.90
39453;DHT22;25154;-33.684;151.102;2022-08-19T01:28:00;17.60;99.90
39453;DHT22;25154;-33.684;151.102;2022-08-19T01:33:02;18.50;99.90
39453;DHT22;25154;-33.684;151.102;2022-08-19T01:38:17;19.00;99.90
39453;DHT22;25154;-33.684;151.102;2022-08-19T01:43:21;19.70;99.90
39453;DHT22;25154;-33.684;151.102;2022-08-19T01:48:23;19.60;99.90
39453;DHT22;25154;-33.684;151.102;2022-08-19T01:53:25;19.20;99.90
39453;DHT22;25154;-33.684;151.102;2022-08-19T01:58:44;18.40;99.90
39453;DHT22;25154;-33.684;151.102;2022-08-19T02:03:50;18.10;99.90
39453;DHT22;25154;-33.684;151.102;2022-08-19T02:08:55;18.00;99.90
39453;DHT22;25154;-33.684;151.102;2022-08-19T02:13:57;20.30;99.90
39453;DHT22;25154;-33.684;151.102;2022-08-19T02:19:00;17.80;99.90
39453;DHT22;25154;-33.684;151.102;2022-08-19T02:24:03;18.20;99.90
39453;DHT22;25154;-33.684;151.102;2022-08-19T02:29:05;18.70;99.90
39453;DHT22;25154;-33.684;151.102;2022-08-19T02:34:08;19.00;99.90
39453;DHT22;25154;-33.684;151.102;2022-08-19T02:39:10;20.10;99.90
39453;DHT22;25154;-33.684;151.102;2022-08-19T02:44:13;19.60;99.90
39453;DHT22;25154;-33.684;151.102;2022-08-19T02:49:15;19.10;99.90
39453;DHT22;25154;-33.684;151.102;2022-08-19T02:54:17;19.00;99.90
39453;DHT22;25154;-33.684;151.102;2022-08-19T02:59:20;19.20;99.90
39453;DHT22;25154;-33.684;151.102;2022-08-19T03:04:23;19.40;99.90
39453;DHT22;25154;-33.684;151.102;2022-08-19T03:09:25;19.40;99.90
39453;DHT22;25154;-33.684;151.102;2022-08-19T03:14:31;19.40;99.90
39453;DHT22;25154;-33.684;151.102;2022-08-19T03:19:33;19.20;99.90
39453;DHT22;25154;-33.684;151.102;2022-08-19T03:24:36;19.30;99.90
39453;DHT22;25154;-33.684;151.102;2022-08-19T03:29:39;19.20;99.90
39453;DHT22;25154;-33.684;151.102;2022-08-19T03:34:41;19.60;99.90
39453;DHT22;25154;-33.684;151.102;2022-08-19T03:39:44;19.20;99.90
39453;DHT22;25154;-33.684;151.102;2022-08-19T03:44:46;19.20;99.90
39453;DHT22;25154;-33.684;151.102;2022-08-19T03:49:48;19.00;99.90
39453;DHT22;25154;-33.684;151.102;2022-08-19T03:54:51;18.90;99.90
39453;DHT22;25154;-33.684;151.102;2022-08-19T03:59:53;19.00;99.90
39453;DHT22;25154;-33.684;151.102;2022-08-19T04:04:57;19.00;99.90
39453;DHT22;25154;-33.684;151.102;2022-08-19T04:10:01;19.10;99.90
39453;DHT22;25154;-33.684;151.102;2022-08-19T04:15:05;19.30;99.90
39453;DHT22;25154;-33.684;151.102;2022-08-19T04:20:10;19.40;99.90
39453;DHT22;25154;-33.684;151.102;2022-08-19T04:25:13;19.40;99.90
39453;DHT22;25154;-33.684;151.102;2022-08-19T04:30:17;20.40;99.90
39453;DHT22;25154;-33.684;151.102;2022-08-19T04:35:20;22.00;97.70
39453;DHT22;25154;-33.684;151.102;2022-08-19T04:40:23;23.10;95.80
39453;DHT22;25154;-33.684;151.102;2022-08-19T04:45:46;24.00;96.00
39453;DHT22;25154;-33.684;151.102;2022-08-19T04:50:49;23.10;95.20
39453;DHT22;25154;-33.684;151.102;2022-08-19T04:55:59;20.80;96.40
39453;DHT22;25154;-33.684;151.102;2022-08-19T05:01:04;19.30;98.70
39453;DHT22;25154;-33.684;151.102;2022-08-19T05:06:10;18.20;99.90
39453;DHT22;25154;-33.684;151.102;2022-08-19T05:16:19;15.20;99.90
39453;DHT22;25154;-33.684;151.102;2022-08-19T05:21:22;14.70;99.90
39453;DHT22;25154;-33.684;151.102;2022-08-19T05:26:46;14.50;99.90
39453;DHT22;25154;-33.684;151.102;2022-08-19T05:31:49;14.30;99.90
39453;DHT22;25154;-33.684;151.102;2022-08-19T05:36:57;14.30;99.90
39453;DHT22;25154;-33.684;151.102;2022-08-19T05:42:06;14.30;99.90
39453;DHT22;25154;-33.684;151.102;2022-08-19T05:47:08;14.20;99.90
39453;DHT22;25154;-33.684;151.102;2022-08-19T05:52:14;14.20;99.90
39453;DHT22;25154;-33.684;151.102;2022-08-19T05:57:20;14.20;99.90
39453;DHT22;25154;-33.684;151.102;2022-08-19T06:02:22;14.30;99.90
39453;DHT22;25154;-33.684;151.102;2022-08-19T06:07:25;16.30;99.90
39453;DHT22;25154;-33.684;151.102;2022-08-19T06:12:37;17.50;99.90
39453;DHT22;25154;-33.684;151.102;2022-08-19T06:17:40;18.40;99.90
39453;DHT22;25154;-33.684;151.102;2022-08-19T06:22:48;18.00;99.90
39453;DHT22;25154;-33.684;151.102;2022-08-19T06:27:53;16.90;99.90
39453;DHT22;25154;-33.684;151.102;2022-08-19T06:32:55;15.70;99.90
39453;DHT22;25154;-33.684;151.102;2022-08-19T06:37:58;15.10;99.90
39453;DHT22;25154;-33.684;151.102;2022-08-19T06:43:04;15.10;99.90
39453;DHT22;25154;-33.684;151.102;2022-08-19T06:48:07;16.10;99.90
39453;DHT22;25154;-33.684;151.102;2022-08-19T06:53:09;16.40;99.90
39453;DHT22;25154;-33.684;151.102;2022-08-19T06:58:11;16.10;99.90
39453;DHT22;25154;-33.684;151.102;2022-08-19T07:03:17;15.70;99.90
39453;DHT22;25154;-33.684;151.102;2022-08-19T07:08:22;15.50;99.90
39453;DHT22;25154;-33.684;151.102;2022-08-19T07:13:28;15.10;99.90
39453;DHT22;25154;-33.684;151.102;2022-08-19T07:18:31;14.20;99.90
39453;DHT22;25154;-33.684;151.102;2022-08-19T07:23:34;14.00;99.90
39453;DHT22;25154;-33.684;151.102;2022-08-19T07:28:39;14.00;99.90
39453;DHT22;25154;-33.684;151.102;2022-08-19T07:33:45;14.00;99.90
39453;DHT22;25154;-33.684;151.102;2022-08-19T07:38:49;13.90;99.90
39453;DHT22;25154;-33.684;151.102;2022-08-19T07:43:53;13.70;99.90
39453;DHT22;25154;-33.684;151.102;2022-08-19T07:48:55;13.40;99.90
39453;DHT22;25154;-33.684;151.102;2022-08-19T07:54:00;13.90;99.90
39453;DHT22;25154;-33.684;151.102;2022-08-19T08:04:13;13.00;99.90
39453;DHT22;25154;-33.684;151.102;2022-08-19T08:09:36;13.00;99.90
39453;DHT22;25154;-33.684;151.102;2022-08-19T08:14:48;13.10;99.90
39453;DHT22;25154;-33.684;151.102;2022-08-19T08:19:51;13.10;99.90
39453;DHT22;25154;-33.684;151.102;2022-08-19T08:24:53;13.30;99.90
39453;DHT22;25154;-33.684;151.102;2022-08-19T08:30:00;13.30;99.90
39453;DHT22;25154;-33.684;151.102;2022-08-19T08:35:09;13.00;99.90
39453;DHT22;25154;-33.684;151.102;2022-08-19T08:41:04;12.70;99.90
39453;DHT22;25154;-33.684;151.102;2022-08-19T08:45:53;12.30;99.90
39453;DHT22;25154;-33.684;151.102;2022-08-19T08:50:57;12.00;99.90
39453;DHT22;25154;-33.684;151.102;2022-08-19T08:56:03;11.70;99.90
39453;DHT22;25154;-33.684;151.102;2022-08-19T09:01:12;11.50;99.90
39453;DHT22;25154;-33.684;151.102;2022-08-19T09:11:55;11.00;99.90
39453;DHT22;25154;-33.684;151.102;2022-08-19T09:17:00;10.70;99.90
39453;DHT22;25154;-33.684;151.102;2022-08-19T09:22:28;10.50;99.90
39453;DHT22;25154;-33.684;151.102;2022-08-19T09:27:32;10.20;99.90
39453;DHT22;25154;-33.684;151.102;2022-08-19T09:32:39;10.00;99.90
39453;DHT22;25154;-33.684;151.102;2022-08-19T09:37:44;9.60;99.90
39453;DHT22;25154;-33.684;151.102;2022-08-19T09:42:47;9.60;99.90
39453;DHT22;25154;-33.684;151.102;2022-08-19T09:47:52;9.80;99.90
39453;DHT22;25154;-33.684;151.102;2022-08-19T09:52:55;9.70;99.90
39453;DHT22;25154;-33.684;151.102;2022-08-19T09:58:00;9.80;99.90
39453;DHT22;25154;-33.684;151.102;2022-08-19T10:03:03;10.10;99.90
39453;DHT22;25154;-33.684;151.102;2022-08-19T10:08:06;10.20;99.90
39453;DHT22;25154;-33.684;151.102;2022-08-19T10:13:09;10.10;99.90
39453;DHT22;25154;-33.684;151.102;2022-08-19T10:18:12;9.90;99.90
39453;DHT22;25154;-33.684;151.102;2022-08-19T10:23:15;9.70;99.90
39453;DHT22;25154;-33.684;151.102;2022-08-19T10:28:18;9.50;99.90
39453;DHT22;25154;-33.684;151.102;2022-08-19T10:33:21;9.40;99.90
39453;DHT22;25154;-33.684;151.102;2022-08-19T10:38:24;9.20;99.90
39453;DHT22;25154;-33.684;151.102;2022-08-19T10:43:27;9.10;99.90
39453;DHT22;25154;-33.684;151.102;2022-08-19T10:48:29;8.90;99.90
39453;DHT22;25154;-33.684;151.102;2022-08-19T10:53:32;8.90;99.90
39453;DHT22;25154;-33.684;151.102;2022-08-19T10:58:35;9.20;99.90
39453;DHT22;25154;-33.684;151.102;2022-08-19T11:03:38;9.60;99.90
39453;DHT22;25154;-33.684;151.102;2022-08-19T11:08:41;9.50;99.90
39453;DHT22;25154;-33.684;151.102;2022-08-19T11:13:47;9.40;99.90
39453;DHT22;25154;-33.684;151.102;2022-08-19T11:18:56;9.20;99.90
39453;DHT22;25154;-33.684;151.102;2022-08-19T11:24:00;8.90;99.90
39453;DHT22;25154;-33.684;151.102;2022-08-19T11:29:04;8.80;99.90
39453;DHT22;25154;-33.684;151.102;2022-08-19T11:34:10;8.60;99.90
39453;DHT22;25154;-33.684;151.102;2022-08-19T11:39:15;8.50;99.90
39453;DHT22;25154;-33.684;151.102;2022-08-19T11:44:18;8.40;99.90
39453;DHT22;25154;-33.684;151.102;2022-08-19T11:49:24;8.20;99.90
39453;DHT22;25154;-33.684;151.102;2022-08-19T11:54:27;8.20;99.90
39453;DHT22;25154;-33.684;151.102;2022-08-19T11:59:30;8.10;99.90
39453;DHT22;25154;-33.684;151.102;2022-08-19T12:04:32;8.00;99.90
39453;DHT22;25154;-33.684;151.102;2022-08-19T12:09:40;7.80;99.90
39453;DHT22;25154;-33.684;151.102;2022-08-19T12:14:42;7.70;99.90
39453;DHT22;25154;-33.684;151.102;2022-08-19T12:19:46;7.60;99.90
39453;DHT22;25154;-33.684;151.102;2022-08-19T12:24:48;7.50;99.90
39453;DHT22;25154;-33.684;151.102;2022-08-19T12:29:54;7.30;99.90
39453;DHT22;25154;-33.684;151.102;2022-08-19T12:34:59;7.30;99.90
39453;DHT22;25154;-33.684;151.102;2022-08-19T12:40:04;7.30;99.90
39453;DHT22;25154;-33.684;151.102;2022-08-19T12:45:13;7.30;99.90
39453;DHT22;25154;-33.684;151.102;2022-08-19T12:50:16;7.10;99.90
39453;DHT22;25154;-33.684;151.102;2022-08-19T12:55:19;7.00;99.90
39453;DHT22;25154;-33.684;151.102;2022-08-19T13:00:23;6.90;99.90
39453;DHT22;25154;-33.684;151.102;2022-08-19T13:05:29;6.90;99.90
39453;DHT22;25154;-33.684;151.102;2022-08-19T13:10:34;6.80;99.90
39453;DHT22;25154;-33.684;151.102;2022-08-19T13:15:39;6.90;99.90
39453;DHT22;25154;-33.684;151.102;2022-08-19T13:20:42;6.80;99.90
39453;DHT22;25154;-33.684;151.102;2022-08-19T13:25:54;6.60;99.90
39453;DHT22;25154;-33.684;151.102;2022-08-19T13:30:57;6.60;99.90
39453;DHT22;25154;-33.684;151.102;2022-08-19T13:36:20;6.60;99.90
39453;DHT22;25154;-33.684;151.102;2022-08-19T13:41:22;6.60;99.90
39453;DHT22;25154;-33.684;151.102;2022-08-19T13:46:25;6.40;99.90
39453;DHT22;25154;-33.684;151.102;2022-08-19T13:51:31;6.30;99.90
39453;DHT22;25154;-33.684;151.102;2022-08-19T13:56:35;6.40;99.90
39453;DHT22;25154;-33.684;151.102;2022-08-19T14:01:41;6.20;99.90
39453;DHT22;25154;-33.684;151.102;2022-08-19T14:06:45;6.10;99.90
39453;DHT22;25154;-33.684;151.102;2022-08-19T14:11:47;6.10;99.90
39453;DHT22;25154;-33.684;151.102;2022-08-19T14:16:52;6.10;99.90
39453;DHT22;25154;-33.684;151.102;2022-08-19T14:21:56;6.00;99.90
39453;DHT22;25154;-33.684;151.102;2022-08-19T14:27:00;5.90;99.90
39453;DHT22;25154;-33.684;151.102;2022-08-19T14:32:03;6.00;99.90
39453;DHT22;25154;-33.684;151.102;2022-08-19T14:37:06;6.00;99.90
39453;DHT22;25154;-33.684;151.102;2022-08-19T14:42:10;5.90;99.90
39453;DHT22;25154;-33.684;151.102;2022-08-19T14:47:16;6.00;99.90
39453;DHT22;25154;-33.684;151.102;2022-08-19T14:52:19;5.90;99.90
39453;DHT22;25154;-33.684;151.102;2022-08-19T14:57:25;5.80;99.90
39453;DHT22;25154;-33.684;151.102;2022-08-19T15:02:28;5.80;99.90
39453;DHT22;25154;-33.684;151.102;2022-08-19T15:07:30;5.70;99.90
39453;DHT22;25154;-33.684;151.102;2022-08-19T15:12:35;5.70;99.90
39453;DHT22;25154;-33.684;151.102;2022-08-19T15:17:40;5.70;99.90
39453;DHT22;25154;-33.684;151.102;2022-08-19T15:22:43;5.70;99.90
39453;DHT22;25154;-33.684;151.102;2022-08-19T15:27:46;5.50;99.90
39453;DHT22;25154;-33.684;151.102;2022-08-19T15:32:50;5.50;99.90
39453;DHT22;25154;-33.684;151.102;2022-08-19T15:37:55;5.40;99.90
39453;DHT22;25154;-33.684;151.102;2022-08-19T15:43:01;5.60;99.90
39453;DHT22;25154;-33.684;151.102;2022-08-19T15:48:04;5.60;99.90
39453;DHT22;25154;-33.684;151.102;2022-08-19T15:53:09;5.50;99.90
39453;DHT22;25154;-33.684;151.102;2022-08-19T15:58:13;5.40;99.90
39453;DHT22;25154;-33.684;151.102;2022-08-19T16:03:34;5.40;99.90
39453;DHT22;25154;-33.684;151.102;2022-08-19T16:08:58;5.50;99.90
39453;DHT22;25154;-33.684;151.102;2022-08-19T16:14:01;5.40;99.90
39453;DHT22;25154;-33.684;151.102;2022-08-19T16:19:07;5.30;99.90
39453;DHT22;25154;-33.684;151.102;2022-08-19T16:24:11;5.10;99.90
39453;DHT22;25154;-33.684;151.102;2022-08-19T16:29:16;5.20;99.90
39453;DHT22;25154;-33.684;151.102;2022-08-19T16:34:20;5.20;99.90
39453;DHT22;25154;-33.684;151.102;2022-08-19T16:39:23;5.20;99.90
39453;DHT22;25154;-33.684;151.102;2022-08-19T16:44:26;5.10;99.90
39453;DHT22;25154;-33.684;151.102;2022-08-19T16:49:32;5.00;99.90
39453;DHT22;25154;-33.684;151.102;2022-08-19T16:54:38;4.90;99.90
39453;DHT22;25154;-33.684;151.102;2022-08-19T16:59:41;5.00;99.90
39453;DHT22;25154;-33.684;151.102;2022-08-19T17:04:45;4.80;99.90
39453;DHT22;25154;-33.684;151.102;2022-08-19T17:09:50;4.80;99.90
39453;DHT22;25154;-33.684;151.102;2022-08-19T17:14:53;4.70;99.90
39453;DHT22;25154;-33.684;151.102;2022-08-19T17:19:58;5.20;99.90
39453;DHT22;25154;-33.684;151.102;2022-08-19T17:25:02;4.70;99.90
39453;DHT22;25154;-33.684;151.102;2022-08-19T17:30:05;4.70;99.90
39453;DHT22;25154;-33.684;151.102;2022-08-19T17:35:08;4.70;99.90
39453;DHT22;25154;-33.684;151.102;2022-08-19T17:40:11;4.60;99.90
39453;DHT22;25154;-33.684;151.102;2022-08-19T17:45:14;4.50;99.90
39453;DHT22;25154;-33.684;151.102;2022-08-19T17:50:18;4.50;99.90
39453;DHT22;25154;-33.684;151.102;2022-08-19T17:55:22;4.40;99.90
39453;DHT22;25154;-33.684;151.102;2022-08-19T18:00:25;4.30;99.90
39453;DHT22;25154;-33.684;151.102;2022-08-19T18:05:33;4.40;99.90
39453;DHT22;25154;-33.684;151.102;2022-08-19T18:10:36;4.40;99.90
39453;DHT22;25154;-33.684;151.102;2022-08-19T18:15:40;4.30;99.90
39453;DHT22;25154;-33.684;151.102;2022-08-19T18:20:43;4.10;99.90
39453;DHT22;25154;-33.684;151.102;2022-08-19T18:25:46;4.10;99.90
39453;DHT22;25154;-33.684;151.102;2022-08-19T18:30:48;4.10;99.90
39453;DHT22;25154;-33.684;151.102;2022-08-19T18:35:51;4.20;99.90
39453;DHT22;25154;-33.684;151.102;2022-08-19T18:40:54;4.10;99.90
39453;DHT22;25154;-33.684;151.102;2022-08-19T18:46:16;4.10;99.90
39453;DHT22;25154;-33.684;151.102;2022-08-19T18:51:37;4.00;99.90
39453;DHT22;25154;-33.684;151.102;2022-08-19T18:56:40;4.10;99.90
39453;DHT22;25154;-33.684;151.102;2022-08-19T19:01:46;4.30;99.90
39453;DHT22;25154;-33.684;151.102;2022-08-19T19:06:51;4.30;99.90
39453;DHT22;25154;-33.684;151.102;2022-08-19T19:11:58;4.10;99.90
39453;DHT22;25154;-33.684;151.102;2022-08-19T19:17:04;4.00;99.90
39453;DHT22;25154;-33.684;151.102;2022-08-19T19:22:11;4.00;99.90
39453;DHT22;25154;-33.684;151.102;2022-08-19T19:27:15;4.10;99.90
39453;DHT22;25154;-33.684;151.102;2022-08-19T19:32:28;4.10;99.90
39453;DHT22;25154;-33.684;151.102;2022-08-19T19:37:35;4.10;99.90
39453;DHT22;25154;-33.684;151.102;2022-08-19T19:42:39;4.10;99.90
39453;DHT22;25154;-33.684;151.102;2022-08-19T19:47:42;4.30;99.90
39453;DHT22;25154;-33.684;151.102;2022-08-19T19:52:46;4.20;99.90
39453;DHT22;25154;-33.684;151.102;2022-08-19T19:57:49;4.20;99.90
39453;DHT22;25154;-33.684;151.102;2022-08-19T20:02:52;4.20;99.90
39453;DHT22;25154;-33.684;151.102;2022-08-19T20:07:56;4.10;99.90
39453;DHT22;25154;-33.684;151.102;2022-08-19T20:13:17;4.00;99.90
39453;DHT22;25154;-33.684;151.102;2022-08-19T20:18:20;3.90;99.90
39453;DHT22;25154;-33.684;151.102;2022-08-19T20:23:24;3.90;99.90
39453;DHT22;25154;-33.684;151.102;2022-08-19T20:28:27;3.90;99.90
39453;DHT22;25154;-33.684;151.102;2022-08-19T20:33:30;3.70;99.90
39453;DHT22;25154;-33.684;151.102;2022-08-19T20:38:33;3.70;99.90
39453;DHT22;25154;-33.684;151.102;2022-08-19T20:43:37;3.60;99.90
39453;DHT22;25154;-33.684;151.102;2022-08-19T20:48:40;3.70;99.90
39453;DHT22;25154;-33.684;151.102;2022-08-19T20:53:43;3.80;99.90
39453;DHT22;25154;-33.684;151.102;2022-08-19T20:58:46;3.80;99.90
39453;DHT22;25154;-33.684;151.102;2022-08-19T21:03:49;3.80;99.90
39453;DHT22;25154;-33.684;151.102;2022-08-19T21:08:53;3.90;99.90
39453;DHT22;25154;-33.684;151.102;2022-08-19T21:13:55;4.00;99.90
39453;DHT22;25154;-33.684;151.102;2022-08-19T21:18:58;4.10;99.90
39453;DHT22;25154;-33.684;151.102;2022-08-19T21:24:03;4.30;99.90
39453;DHT22;25154;-33.684;151.102;2022-08-19T21:29:06;4.60;99.90
39453;DHT22;25154;-33.684;151.102;2022-08-19T21:34:09;4.80;99.90
39453;DHT22;25154;-33.684;151.102;2022-08-19T21:39:11;5.10;99.90
39453;DHT22;25154;-33.684;151.102;2022-08-19T21:44:14;5.50;99.90
39453;DHT22;25154;-33.684;151.102;2022-08-19T21:49:17;5.90;99.90
39453;DHT22;25154;-33.684;151.102;2022-08-19T21:54:20;7.70;99.90
39453;DHT22;25154;-33.684;151.102;2022-08-19T21:59:23;6.50;99.90
39453;DHT22;25154;-33.684;151.102;2022-08-19T22:04:25;6.80;99.90
39453;DHT22;25154;-33.684;151.102;2022-08-19T22:09:29;7.20;99.90
39453;DHT22;25154;-33.684;151.102;2022-08-19T22:14:32;7.80;99.90
39453;DHT22;25154;-33.684;151.102;2022-08-19T22:19:34;8.20;99.90
39453;DHT22;25154;-33.684;151.102;2022-08-19T22:24:37;8.80;99.90
39453;DHT22;25154;-33.684;151.102;2022-08-19T22:29:43;9.30;99.90
39453;DHT22;25154;-33.684;151.102;2022-08-19T22:34:46;9.60;99.90
39453;DHT22;25154;-33.684;151.102;2022-08-19T22:39:48;10.00;99.90
39453;DHT22;25154;-33.684;151.102;2022-08-19T22:44:51;10.40;99.90
39453;DHT22;25154;-33.684;151.102;2022-08-19T22:49:59;10.70;99.90
39453;DHT22;25154;-33.684;151.102;2022-08-19T22:55:04;10.90;99.90
39453;DHT22;25154;-33.684;151.102;2022-08-19T23:00:08;11.00;99.90
39453;DHT22;25154;-33.684;151.102;2022-08-19T23:05:13;11.30;99.90
39453;DHT22;25154;-33.684;151.102;2022-08-19T23:10:20;11.70;99.90
39453;DHT22;25154;-33.684;151.102;2022-08-19T23:15:25;12.00;99.90
39453;DHT22;25154;-33.684;151.102;2022-08-19T23:20:32;12.20;99.90
39453;DHT22;25154;-33.684;151.102;2022-08-19T23:25:35;12.50;99.90
39453;DHT22;25154;-33.684;151.102;2022-08-19T23:30:41;12.70;99.90
39453;DHT22;25154;-33.684;151.102;2022-08-19T23:35:44;13.10;99.90
39453;DHT22;25154;-33.684;151.102;2022-08-19T23:40:48;13.30;99.90
39453;DHT22;25154;-33.684;151.102;2022-08-19T23:45:51;13.60;99.90
39453;DHT22;25154;-33.684;151.102;2022-08-19T23:50:55;13.80;99.90
39453;DHT22;25154;-33.684;151.102;2022-08-19T23:55:59;14.10;99.90
